Terminal Aerodrome Forecast
Issued by NWS

Home | Current Version | Previous Version | Text Only | Print | Product List | Glossary On
Versions: 1 2 3 4 5 6 7 8 9 10 11 12 13 14
000
FTUS45 KREV 191700
TAFMMH
TAF
KMMH 191738Z 1918/2018 12007KT P6SM FEW070 BKN180
     FM192000 28010G20KT P6SM VCSH SCT070 BKN180
     FM200300 29008KT P6SM SCT180
     FM200700 VRB03KT P6SM SKC=

USA.gov is the U.S. government's official web portal to all federal, state and local government web resources and services.